Time;durP1;ratioP1;P1;durP2;ratioP2;P2;SDS_P1;SDS_P2;PMS_P1;PMS_P2;Temp;Humidity;BMP_temperature;BMP_pressure;BME280_temperature;BME280_humidity;BME280_pressure;Samples;Min_cycle;Max_cycle;Signal;HPM_P1;HPM_P2
2021/10/28 06:48:46;;;;;;;10.48;3.70;;;18.60;67.90;;;;;;5660006;23;20050;-69
2021/10/28 06:51:12;;;;;;;8.02;3.40;;;18.70;68.00;;;;;;4847513;29;20060;-71
2021/10/28 06:53:55;;;;;;;9.50;3.22;;;18.70;68.00;;;;;;4864576;29;20361;-71
2021/10/28 07:04:33;;;;;;;4.32;2.33;;;18.70;68.00;;;;;;4831419;29;20062;-71
2021/10/28 07:06:59;;;;;;;8.63;2.80;;;18.70;68.10;;;;;;4850053;29;20056;-71
2021/10/28 07:09:32;;;;;;;6.40;2.50;;;18.70;67.90;;;;;;4864403;29;20483;-72
2021/10/28 07:12:45;;;;;;;5.20;2.30;;;18.70;68.00;;;;;;4864087;29;20121;-72
2021/10/28 07:14:53;;;;;;;4.43;2.33;;;18.70;68.00;;;;;;4846956;29;20093;-73
2021/10/28 07:17:33;;;;;;;5.53;2.42;;;18.80;68.00;;;;;;4847677;29;20085;-71
2021/10/28 07:30:12;;;;;;;9.85;2.47;;;18.90;67.90;;;;;;4845061;29;20378;-71
2021/10/28 07:33:08;;;;;;;;;;;18.90;67.70;;;;;;4845652;29;20515;-71
2021/10/28 07:57:48;;;;;;;4.85;2.45;;;18.70;67.50;;;;;;4856308;29;20380;-71
2021/10/28 08:16:22;;;;;;;5.30;3.13;;;18.70;68.40;;;;;;4881856;29;20152;-71
2021/10/28 08:21:27;;;;;;;9.38;3.15;;;18.70;67.00;;;;;;4865276;29;20205;-70
2021/10/28 08:31:44;;;;;;;5.10;2.55;;;18.80;67.20;;;;;;4865276;29;20061;-71
2021/10/28 08:34:09;;;;;;;7.43;2.38;;;18.80;67.10;;;;;;4881749;29;20136;-69
2021/10/28 08:36:39;;;;;;;5.07;1.90;;;18.80;67.30;;;;;;4880997;29;20448;-69
2021/10/28 08:39:07;;;;;;;8.20;2.10;;;18.80;67.30;;;;;;4881487;29;20065;-71
2021/10/28 08:41:34;;;;;;;4.68;1.88;;;18.90;67.20;;;;;;4864862;29;20049;-70
2021/10/28 08:44:01;;;;;;;8.35;1.85;;;18.90;67.10;;;;;;4864965;29;20060;-70
2021/10/28 08:46:29;;;;;;;3.72;1.95;;;18.80;67.30;;;;;;4881207;29;20049;-72
2021/10/28 08:48:59;;;;;;;6.88;2.13;;;18.90;67.60;;;;;;4881024;29;20137;-71
2021/10/28 08:51:36;;;;;;;5.80;2.20;;;18.80;67.50;;;;;;4881270;29;20125;-71
2021/10/28 08:57:17;;;;;;;6.78;2.03;;;18.70;67.80;;;;;;4881367;29;20053;-73
2021/10/28 09:00:06;;;;;;;3.92;2.00;;;18.70;68.00;;;;;;4880120;29;20053;-71
2021/10/28 09:24:49;;;;;;;3.38;2.17;;;18.40;69.10;;;;;;4880777;29;20049;-71
2021/10/28 09:27:20;;;;;;;4.57;1.75;;;18.40;69.30;;;;;;4881079;29;20512;-72
2021/10/28 09:44:01;;;;;;;4.68;1.73;;;18.30;70.00;;;;;;4880429;29;20049;-72
2021/10/28 09:46:44;;;;;;;6.78;2.05;;;18.30;70.10;;;;;;4881190;29;20334;-72
2021/10/28 09:51:57;;;;;;;3.67;1.98;;;18.30;70.30;;;;;;4884196;29;20089;-73
2021/10/28 09:55:03;;;;;;;5.00;1.85;;;18.30;70.50;;;;;;4852464;29;20049;-70
2021/10/28 09:57:50;;;;;;;3.35;1.60;;;18.30;70.50;;;;;;4884300;29;20045;-71
2021/10/28 10:00:17;;;;;;;2.58;1.83;;;18.30;70.70;;;;;;4868071;29;20076;-71
2021/10/28 10:02:51;;;;;;;4.88;2.17;;;18.20;70.70;;;;;;4883575;29;20120;-72
2021/10/28 10:05:21;;;;;;;2.72;2.40;;;18.30;70.80;;;;;;4884005;29;20126;-71
2021/10/28 10:07:52;;;;;;;4.03;2.13;;;18.20;70.70;;;;;;4883352;29;20065;-71
2021/10/28 10:10:19;;;;;;;2.88;1.60;;;18.20;70.90;;;;;;4884170;29;20061;-71
2021/10/28 10:12:47;;;;;;;3.78;2.00;;;18.20;71.00;;;;;;4884080;29;20487;-73
2021/10/28 10:15:13;;;;;;;3.28;1.85;;;18.20;71.10;;;;;;4883470;29;20068;-72
2021/10/28 10:18:02;;;;;;;2.75;1.50;;;18.20;71.10;;;;;;4883405;29;20059;-71
2021/10/28 10:20:38;;;;;;;3.20;1.70;;;18.20;71.20;;;;;;4867387;29;20053;-71
2021/10/28 13:48:14;;;;;;;7.80;5.18;;;17.90;67.80;;;;;;4884162;29;20057;-71
2021/10/28 13:51:36;;;;;;;11.77;5.65;;;17.90;67.70;;;;;;4884062;29;20057;-72
2021/10/28 15:40:33;;;;;;;18.85;8.27;;;17.00;71.40;;;;;;4900589;29;20136;-72
2021/10/28 16:23:26;;;;;;;16.70;12.40;;;17.80;71.50;;;;;;4864723;29;20049;-79
2021/10/28 16:25:52;;;;;;;16.65;12.38;;;17.80;70.60;;;;;;4865263;29;20067;-77
2021/10/28 16:28:17;;;;;;;16.80;13.25;;;17.80;69.70;;;;;;4865409;29;20118;-79
2021/10/28 16:30:45;;;;;;;15.00;12.48;;;17.70;69.10;;;;;;4881250;29;20059;-82
2021/10/28 16:33:13;;;;;;;16.15;12.85;;;17.70;68.70;;;;;;4881453;29;20048;-75
2021/10/28 16:35:39;;;;;;;16.70;12.07;;;17.60;68.50;;;;;;4881194;29;20049;-74
2021/10/28 16:38:05;;;;;;;18.58;13.05;;;17.60;68.60;;;;;;4865308;29;20053;-74
2021/10/28 16:40:31;;;;;;;15.43;11.15;;;17.60;68.40;;;;;;4900065;29;20461;-74
2021/10/28 16:42:57;;;;;;;14.60;11.55;;;17.60;69.10;;;;;;4884136;29;20048;-73
2021/10/28 16:45:23;;;;;;;15.90;11.15;;;17.40;69.50;;;;;;4890276;29;20450;-74
2021/10/28 16:47:48;;;;;;;12.98;10.73;;;17.40;69.90;;;;;;4862992;29;20053;-74
2021/10/28 16:50:14;;;;;;;14.10;10.82;;;17.40;70.10;;;;;;4862738;29;20467;-73
2021/10/28 16:52:41;;;;;;;14.68;10.63;;;17.30;70.20;;;;;;4846986;29;20361;-74
2021/10/28 16:55:07;;;;;;;18.40;11.95;;;17.30;70.50;;;;;;4862335;29;20057;-74
2021/10/28 16:57:33;;;;;;;16.50;11.38;;;17.30;70.40;;;;;;4873325;29;20052;-73
2021/10/28 16:59:59;;;;;;;21.40;11.32;;;17.30;70.60;;;;;;4880806;29;20056;-73
2021/10/28 17:02:24;;;;;;;15.05;11.23;;;17.20;70.70;;;;;;4865483;29;20357;-77
2021/10/28 17:04:50;;;;;;;15.00;10.73;;;17.20;70.60;;;;;;4864707;29;20045;-74
2021/10/28 17:07:16;;;;;;;16.40;9.40;;;17.20;70.70;;;;;;4881091;29;20049;-75
2021/10/28 17:09:42;;;;;;;12.18;8.40;;;17.20;70.90;;;;;;4880650;29;20052;-74
2021/10/28 17:12:08;;;;;;;13.85;8.43;;;17.10;71.00;;;;;;4880495;29;20069;-75
2021/10/28 17:14:34;;;;;;;13.77;8.40;;;17.10;71.30;;;;;;4881026;29;20207;-74
2021/10/28 17:17:00;;;;;;;11.93;8.25;;;17.10;71.50;;;;;;4880941;29;20123;-75
2021/10/28 17:19:26;;;;;;;10.90;7.43;;;17.00;71.70;;;;;;4880992;29;20136;-79
2021/10/28 17:21:52;;;;;;;15.73;11.02;;;17.00;71.60;;;;;;4880932;29;20137;-77
2021/10/28 17:26:50;;;;;;;17.95;10.48;;;17.10;70.50;;;;;;4881047;29;20049;-74
2021/10/28 17:29:16;;;;;;;20.40;12.32;;;17.00;70.50;;;;;;4881808;29;20123;-78
2021/10/28 17:31:42;;;;;;;15.85;11.75;;;17.10;70.90;;;;;;4881222;29;20056;-77
2021/10/28 17:34:08;;;;;;;17.63;13.82;;;17.10;70.20;;;;;;4880236;29;20087;-76
2021/10/28 17:36:34;;;;;;;23.13;13.40;;;17.20;69.10;;;;;;4881065;29;20057;-73
2021/10/28 17:39:00;;;;;;;18.58;12.20;;;17.10;69.10;;;;;;4881003;29;20471;-72
2021/10/28 17:41:26;;;;;;;18.20;11.85;;;17.10;69.50;;;;;;4881182;29;20132;-73
2021/10/28 17:43:55;;;;;;;14.85;10.45;;;17.10;69.60;;;;;;4881018;29;20411;-72
2021/10/28 17:46:24;;;;;;;14.73;10.07;;;17.20;69.80;;;;;;4880332;29;20057;-74
2021/10/28 17:48:51;;;;;;;16.48;10.55;;;17.20;69.70;;;;;;4880792;29;20077;-73
2021/10/28 17:51:17;;;;;;;13.80;10.02;;;17.30;69.70;;;;;;4880890;29;20185;-72
2021/10/28 17:53:44;;;;;;;13.32;9.73;;;17.30;69.70;;;;;;4880791;29;20049;-73
2021/10/28 17:56:14;;;;;;;12.30;9.27;;;17.30;69.80;;;;;;4880794;29;20060;-73
2021/10/28 17:58:40;;;;;;;13.70;9.38;;;17.40;70.00;;;;;;4879947;29;20729;-72
2021/10/28 18:01:07;;;;;;;12.68;8.55;;;17.40;69.90;;;;;;4880506;29;20131;-73
2021/10/28 18:03:35;;;;;;;16.52;9.10;;;17.40;69.90;;;;;;4878552;29;20429;-73
2021/10/28 18:06:01;;;;;;;13.75;8.48;;;17.40;69.90;;;;;;4880687;29;20049;-72
2021/10/28 18:08:27;;;;;;;15.88;8.00;;;17.40;70.00;;;;;;4881441;29;20045;-72
2021/10/28 18:10:53;;;;;;;11.07;7.22;;;17.40;70.00;;;;;;4882620;29;20060;-72
2021/10/28 18:13:19;;;;;;;14.00;7.75;;;17.40;70.00;;;;;;4883103;29;20072;-73
2021/10/28 18:15:46;;;;;;;9.88;6.82;;;17.40;70.20;;;;;;4883855;29;20057;-73
2021/10/28 18:18:12;;;;;;;15.88;7.22;;;17.40;70.30;;;;;;4884171;29;20056;-72
2021/10/28 18:20:39;;;;;;;11.52;6.95;;;17.40;70.50;;;;;;4884155;29;20045;-72
2021/10/28 18:23:06;;;;;;;10.40;6.68;;;17.40;70.60;;;;;;4867498;29;20473;-72
2021/10/28 18:25:32;;;;;;;11.05;6.93;;;17.30;70.70;;;;;;4883550;29;20055;-72
2021/10/28 18:27:59;;;;;;;11.80;6.50;;;17.30;70.90;;;;;;4883821;29;20056;-72
2021/10/28 18:30:28;;;;;;;9.70;6.72;;;17.30;70.90;;;;;;4883745;29;20049;-72
2021/10/28 18:32:54;;;;;;;9.55;6.72;;;17.20;71.00;;;;;;4883115;29;20053;-73
2021/10/28 18:35:20;;;;;;;11.27;6.95;;;17.20;71.10;;;;;;4852039;29;20140;-72
2021/10/28 18:37:49;;;;;;;10.68;6.47;;;17.20;71.10;;;;;;4883783;29;20133;-73
2021/10/28 18:40:16;;;;;;;12.15;6.95;;;17.20;71.10;;;;;;4883372;29;20056;-82
2021/10/28 18:42:43;;;;;;;15.90;9.30;;;17.20;70.90;;;;;;4850826;29;20053;-82
2021/10/28 18:45:13;;;;;;;13.90;10.88;;;17.30;70.20;;;;;;4855648;29;20513;-76
2021/10/28 18:47:39;;;;;;;15.23;11.80;;;17.20;69.10;;;;;;4866635;29;20053;-78
2021/10/28 18:50:06;;;;;;;17.17;12.43;;;17.20;68.30;;;;;;4881433;29;20056;-80
